createdAt,value
2022-10-18T00:01:47.897Z,17.57
2022-10-18T00:04:19.883Z,16.30
2022-10-18T00:06:49.492Z,16.10
2022-10-18T00:09:19.434Z,15.90
2022-10-18T00:11:48.870Z,17.60
2022-10-18T00:14:18.337Z,19.80
2022-10-18T00:16:47.798Z,17.33
2022-10-18T00:19:19.769Z,16.27
2022-10-18T00:21:49.176Z,16.43
2022-10-18T00:24:18.609Z,15.13
2022-10-18T00:26:47.997Z,17.07
2022-10-18T00:29:18.525Z,17.10
2022-10-18T00:31:47.932Z,16.50
2022-10-18T00:34:19.938Z,17.30
2022-10-18T00:36:49.302Z,17.80
2022-10-18T00:39:20.181Z,16.60
2022-10-18T00:41:53.082Z,18.03
2022-10-18T00:44:52.569Z,18.17
2022-10-18T00:47:22.538Z,17.07
2022-10-18T00:49:56.233Z,18.10
2022-10-18T00:52:29.438Z,16.97
2022-10-18T00:54:59.794Z,18.30
2022-10-18T00:57:29.342Z,18.93
2022-10-18T00:59:58.893Z,18.60
2022-10-18T01:02:29.101Z,18.57
2022-10-18T01:05:01.326Z,19.07
2022-10-18T01:07:40.252Z,21.27
2022-10-18T01:10:16.263Z,20.37
2022-10-18T01:12:52.020Z,19.97
2022-10-18T01:15:26.922Z,20.47
2022-10-18T01:32:06.613Z,21.07
2022-10-18T01:34:38.580Z,19.70
2022-10-18T01:37:11.197Z,19.80
2022-10-18T01:39:43.349Z,19.50
2022-10-18T01:42:13.790Z,19.90
2022-10-18T01:44:44.494Z,21.00
2022-10-18T01:47:17.227Z,19.17
2022-10-18T01:49:46.622Z,20.20
2022-10-18T01:52:16.315Z,20.43
2022-10-18T01:54:48.374Z,19.97
2022-10-18T01:57:23.294Z,20.27
2022-10-18T01:59:58.721Z,19.80
2022-10-18T02:02:41.904Z,21.30
2022-10-18T02:05:17.686Z,21.83
2022-10-18T02:08:00.168Z,22.07
2022-10-18T02:10:44.827Z,21.27
2022-10-18T02:13:17.311Z,21.43
2022-10-18T02:15:50.569Z,22.37
2022-10-18T02:18:26.365Z,21.80
2022-10-18T02:20:56.131Z,23.70
2022-10-18T02:23:27.517Z,22.50
2022-10-18T02:25:57.121Z,23.67
2022-10-18T02:28:26.514Z,22.00
2022-10-18T02:31:01.538Z,23.20
2022-10-18T02:33:36.005Z,24.17
2022-10-18T02:36:08.407Z,23.90
2022-10-18T02:38:38.121Z,23.60
2022-10-18T02:41:07.873Z,25.30
2022-10-18T02:43:38.089Z,23.87
2022-10-18T02:46:07.529Z,26.13
2022-10-18T02:48:39.481Z,25.57
2022-10-18T02:51:09.174Z,26.57
2022-10-18T02:53:38.529Z,26.17
2022-10-18T02:56:08.467Z,25.37
2022-10-18T02:58:37.839Z,23.87
2022-10-18T03:01:07.491Z,26.97
2022-10-18T03:03:39.520Z,23.73
2022-10-18T03:06:09.053Z,25.73
2022-10-18T03:08:38.962Z,25.67
2022-10-18T03:11:08.763Z,25.63
2022-10-18T03:13:38.144Z,24.97
2022-10-18T03:16:08.112Z,25.83
2022-10-18T03:18:40.070Z,27.13
2022-10-18T03:21:10.118Z,26.13
2022-10-18T03:23:40.062Z,24.23
2022-10-18T03:26:09.656Z,26.50
2022-10-18T03:28:39.121Z,25.07
2022-10-18T03:31:08.720Z,25.63
2022-10-18T03:33:40.698Z,24.43
2022-10-18T03:36:10.340Z,26.17
2022-10-18T03:38:39.727Z,24.73
2022-10-18T03:41:09.141Z,26.67
2022-10-18T03:43:38.539Z,25.37
2022-10-18T03:46:08.282Z,30.20
2022-10-18T03:48:40.358Z,26.07
2022-10-18T03:51:09.745Z,26.07
2022-10-18T03:53:39.243Z,26.23
2022-10-18T03:56:09.281Z,25.23
2022-10-18T03:58:38.842Z,26.93
2022-10-18T04:01:08.277Z,25.37
2022-10-18T04:03:40.253Z,24.77
2022-10-18T04:06:10.071Z,25.20
2022-10-18T04:08:39.584Z,26.57
2022-10-18T04:11:11.225Z,28.00
2022-10-18T04:13:40.882Z,26.93
2022-10-18T04:16:10.359Z,31.87
2022-10-18T04:18:42.350Z,25.20
2022-10-18T04:21:11.734Z,25.80
2022-10-18T04:23:41.118Z,25.13
2022-10-18T04:26:10.587Z,24.93
2022-10-18T04:28:40.304Z,24.20
2022-10-18T04:31:09.900Z,24.67
2022-10-18T04:33:42.013Z,23.60
2022-10-18T04:36:11.446Z,26.20
2022-10-18T04:38:40.851Z,26.10
2022-10-18T04:41:10.288Z,25.53
2022-10-18T04:43:39.762Z,24.00
2022-10-18T04:46:09.451Z,26.13
2022-10-18T04:48:38.816Z,24.60
2022-10-18T04:51:10.823Z,25.00
2022-10-18T04:53:40.455Z,24.60
2022-10-18T04:56:10.827Z,23.67
2022-10-18T04:58:40.237Z,24.00
2022-10-18T05:01:10.322Z,23.00
2022-10-18T05:03:39.714Z,21.47
2022-10-18T05:06:11.828Z,24.57
2022-10-18T05:08:41.222Z,24.80
2022-10-18T05:13:59.898Z,23.87
2022-10-18T05:16:29.634Z,24.90
2022-10-18T05:18:59.017Z,23.13
2022-10-18T05:21:30.967Z,24.60
2022-10-18T05:24:00.406Z,24.97
2022-10-18T05:26:30.178Z,24.50
2022-10-18T05:28:59.612Z,25.63
2022-10-18T05:31:29.167Z,23.97
2022-10-18T05:33:58.941Z,23.57
2022-10-18T05:36:30.903Z,26.30
2022-10-18T05:39:02.619Z,25.50
2022-10-18T05:41:34.494Z,23.37
2022-10-18T05:44:06.579Z,24.87
2022-10-18T05:46:36.318Z,26.40
2022-10-18T05:49:05.722Z,25.67
2022-10-18T05:51:37.718Z,23.83
2022-10-18T05:54:07.169Z,26.03
2022-10-18T05:56:36.580Z,23.47
2022-10-18T05:59:10.326Z,24.57
2022-10-18T06:01:39.791Z,23.80
2022-10-18T06:04:10.176Z,21.87
2022-10-18T06:06:42.302Z,22.00
2022-10-18T06:09:11.796Z,22.60
2022-10-18T06:11:41.175Z,20.90
2022-10-18T06:14:10.963Z,23.03
2022-10-18T06:16:40.419Z,21.00
2022-10-18T06:19:10.106Z,21.70
2022-10-18T06:21:42.098Z,23.27
2022-10-18T06:24:11.558Z,21.73
2022-10-18T06:26:40.954Z,20.93
2022-10-18T06:29:10.452Z,20.37
2022-10-18T06:31:39.902Z,21.23
2022-10-18T06:34:09.293Z,22.47
2022-10-18T06:36:38.663Z,49.43
2022-10-18T06:39:10.641Z,22.37
2022-10-18T06:41:40.041Z,35.27
2022-10-18T06:44:13.826Z,23.10
2022-10-18T06:46:43.538Z,20.00
2022-10-18T06:49:16.692Z,20.80
2022-10-18T06:51:48.533Z,19.00
2022-10-18T06:54:20.646Z,18.87
2022-10-18T06:56:50.028Z,19.87
2022-10-18T06:59:19.565Z,19.87
2022-10-18T07:01:49.000Z,19.40
2022-10-18T07:04:18.406Z,21.30
2022-10-18T07:06:47.822Z,20.57
2022-10-18T07:09:19.777Z,20.40
2022-10-18T07:11:49.146Z,22.63
2022-10-18T07:14:18.501Z,20.37
2022-10-18T07:16:47.874Z,19.50
2022-10-18T07:19:17.631Z,21.33
2022-10-18T07:21:47.027Z,26.90
2022-10-18T07:24:16.519Z,18.60
2022-10-18T07:26:48.482Z,17.70
2022-10-18T07:29:17.962Z,16.93
2022-10-18T07:31:47.325Z,16.77
2022-10-18T07:34:16.878Z,19.20
2022-10-18T07:36:46.250Z,19.10
2022-10-18T07:39:15.634Z,19.13
2022-10-18T07:41:45.141Z,20.20
2022-10-18T07:44:17.475Z,19.30
2022-10-18T07:46:46.835Z,19.70
2022-10-18T07:49:16.186Z,19.20
2022-10-18T07:51:45.571Z,16.30
2022-10-18T07:54:14.949Z,16.87
2022-10-18T07:56:45.341Z,15.37
2022-10-18T07:59:17.421Z,16.97
2022-10-18T08:01:46.877Z,17.47
2022-10-18T08:04:16.670Z,17.03
2022-10-18T08:06:46.294Z,17.50
2022-10-18T08:09:15.678Z,18.70
2022-10-18T08:11:45.088Z,18.27
2022-10-18T08:14:17.074Z,19.73
2022-10-18T08:16:46.460Z,16.70
2022-10-18T08:19:15.831Z,16.57
2022-10-18T08:21:45.218Z,15.53
2022-10-18T08:24:14.626Z,17.93
2022-10-18T08:26:44.013Z,17.57
2022-10-18T08:29:31.774Z,14.90
2022-10-18T08:32:04.062Z,17.07
2022-10-18T08:34:33.489Z,17.43
2022-10-18T08:37:02.943Z,18.00
2022-10-18T08:39:32.352Z,17.63
2022-10-18T08:42:18.658Z,18.90
2022-10-18T08:44:49.380Z,30.80
2022-10-18T08:47:22.956Z,19.10
2022-10-18T08:49:53.941Z,19.90
2022-10-18T08:52:31.499Z,17.20
2022-10-18T08:55:04.190Z,18.63
2022-10-18T08:57:34.554Z,18.70
2022-10-18T09:00:07.611Z,16.37
2022-10-18T09:02:55.238Z,14.67
2022-10-18T09:05:28.225Z,15.30
2022-10-18T09:08:11.546Z,16.20
2022-10-18T09:10:47.513Z,16.77
2022-10-18T09:13:37.670Z,16.50
2022-10-18T09:16:08.881Z,27.33
2022-10-18T09:18:54.777Z,21.83
2022-10-18T09:21:39.847Z,15.87
2022-10-18T09:24:15.306Z,15.97
2022-10-18T09:26:47.845Z,15.20
2022-10-18T09:29:36.195Z,25.20
2022-10-18T09:32:10.279Z,14.20
2022-10-18T09:34:45.244Z,15.60
2022-10-18T09:37:16.113Z,18.60
2022-10-18T09:39:45.785Z,14.23
2022-10-18T09:42:19.545Z,20.00
2022-10-18T09:44:52.153Z,14.37
2022-10-18T09:47:24.863Z,11.80
2022-10-18T09:50:00.470Z,15.50
2022-10-18T09:52:34.928Z,19.80
2022-10-18T09:55:08.454Z,24.57
2022-10-18T09:57:42.258Z,20.93
2022-10-18T10:00:18.275Z,13.03
2022-10-18T10:02:47.747Z,15.50
2022-10-18T10:05:20.030Z,19.43
2022-10-18T10:07:51.322Z,14.27
2022-10-18T10:10:25.054Z,17.40
2022-10-18T10:13:06.349Z,14.30
2022-10-18T10:15:40.520Z,14.80
2022-10-18T10:18:21.134Z,10.60
2022-10-18T10:20:54.446Z,10.80
2022-10-18T10:23:26.073Z,11.97
2022-10-18T10:25:56.681Z,14.97
2022-10-18T10:28:29.274Z,10.37
2022-10-18T10:31:22.355Z,11.23
2022-10-18T10:34:01.591Z,9.73
2022-10-18T10:36:34.333Z,18.97
2022-10-18T10:39:08.705Z,13.97
2022-10-18T10:41:38.265Z,11.00
2022-10-18T10:44:18.981Z,12.17
2022-10-18T10:46:48.970Z,12.23
2022-10-18T10:49:39.202Z,16.63
2022-10-18T10:52:28.797Z,10.93
2022-10-18T10:55:06.127Z,10.90
2022-10-18T10:57:43.846Z,9.53
2022-10-18T11:00:43.636Z,13.63
2022-10-18T11:03:28.372Z,15.93
2022-10-18T11:06:00.972Z,9.97
2022-10-18T11:08:36.027Z,12.13
2022-10-18T11:11:11.535Z,10.50
2022-10-18T11:13:53.325Z,10.20
2022-10-18T11:16:35.858Z,10.53
2022-10-18T11:19:10.969Z,9.47
2022-10-18T11:21:40.678Z,11.60
2022-10-18T11:24:14.747Z,10.40
2022-10-18T11:26:53.804Z,9.57
2022-10-18T11:29:37.958Z,11.63
2022-10-18T11:32:13.896Z,9.50
2022-10-18T11:34:55.415Z,14.33
2022-10-18T11:37:38.244Z,11.20
2022-10-18T11:40:23.609Z,8.10
2022-10-18T11:42:56.409Z,7.50
2022-10-18T11:45:33.040Z,6.73
2022-10-18T11:48:08.430Z,10.50
2022-10-18T11:50:40.574Z,5.30
2022-10-18T11:53:16.910Z,6.10
2022-10-18T11:56:00.298Z,4.87
2022-10-18T11:58:41.154Z,4.03
2022-10-18T12:01:17.002Z,4.53
2022-10-18T12:03:55.489Z,4.50
2022-10-18T12:06:27.335Z,4.73
2022-10-18T12:08:59.615Z,3.63
2022-10-18T12:11:35.132Z,2.80
2022-10-18T12:14:06.263Z,3.67
2022-10-18T12:17:07.691Z,46.70
2022-10-18T12:19:29.818Z,5.13
2022-10-18T12:22:15.449Z,2.93
2022-10-18T12:24:45.021Z,3.30
2022-10-18T12:27:18.909Z,3.03
2022-10-18T12:29:52.353Z,2.27
2022-10-18T12:32:25.222Z,2.07
2022-10-18T12:34:57.537Z,2.90
2022-10-18T12:37:43.216Z,2.37
2022-10-18T12:40:20.312Z,3.20
2022-10-18T12:42:54.478Z,2.70
2022-10-18T12:45:33.229Z,2.73
2022-10-18T12:48:03.978Z,2.20
2022-10-18T12:50:36.688Z,6.03
2022-10-18T12:53:09.231Z,9.43
2022-10-18T12:55:39.628Z,1.87
2022-10-18T12:58:27.990Z,2.20
2022-10-18T13:01:01.258Z,1.77
2022-10-18T13:04:03.195Z,1.87
2022-10-18T13:07:03.032Z,8.13
2022-10-18T13:09:35.111Z,3.30
2022-10-18T13:12:44.977Z,2.03
2022-10-18T13:15:34.308Z,2.67
2022-10-18T13:18:08.808Z,3.80
2022-10-18T13:20:41.629Z,3.93
2022-10-18T13:23:27.498Z,4.87
2022-10-18T13:26:05.757Z,3.57
2022-10-18T13:28:41.956Z,2.53
2022-10-18T13:31:21.782Z,6.20
2022-10-18T13:33:51.481Z,1.93
2022-10-18T13:36:26.073Z,4.13
2022-10-18T13:39:04.950Z,2.00
2022-10-18T13:41:35.875Z,5.30
2022-10-18T13:44:28.190Z,2.90
2022-10-18T13:47:38.777Z,4.30
2022-10-18T13:50:30.483Z,5.97
2022-10-18T13:53:25.825Z,4.90
2022-10-18T13:56:25.710Z,4.23
2022-10-18T13:59:14.274Z,2.50
2022-10-18T14:01:53.773Z,3.47
2022-10-18T14:04:42.696Z,2.33
2022-10-18T14:07:14.745Z,6.33
2022-10-18T14:09:52.412Z,3.30
2022-10-18T14:12:29.648Z,2.17
2022-10-18T14:15:05.041Z,4.13
2022-10-18T14:20:30.092Z,1.67
2022-10-18T14:23:07.050Z,3.00
2022-10-18T14:25:38.308Z,3.40
2022-10-18T14:28:11.530Z,2.70
2022-10-18T14:30:54.833Z,2.27
2022-10-18T14:33:29.171Z,1.97
2022-10-18T14:36:04.285Z,2.30
2022-10-18T14:38:37.971Z,2.30
2022-10-18T14:41:08.806Z,2.40
2022-10-18T14:43:38.265Z,2.50
2022-10-18T14:46:21.774Z,1.50
2022-10-18T14:48:58.624Z,2.30
2022-10-18T14:51:29.153Z,1.70
2022-10-18T14:54:01.230Z,2.40
2022-10-18T14:56:32.409Z,2.37
2022-10-18T14:59:05.974Z,3.83
2022-10-18T15:01:36.446Z,1.87
2022-10-18T15:04:08.685Z,1.97
2022-10-18T15:06:38.177Z,2.13
2022-10-18T15:09:11.550Z,2.27
2022-10-18T15:11:42.827Z,2.33
2022-10-18T15:14:17.417Z,2.40
2022-10-18T15:16:46.863Z,3.00
2022-10-18T15:19:31.635Z,2.70
2022-10-18T15:22:30.205Z,2.23
2022-10-18T15:25:18.192Z,2.00
2022-10-18T15:27:49.585Z,2.50
2022-10-18T15:30:22.659Z,2.27
2022-10-18T15:32:54.085Z,2.47
2022-10-18T15:35:28.213Z,2.47
2022-10-18T15:38:00.187Z,1.70
2022-10-18T15:40:43.786Z,1.90
2022-10-18T15:43:38.442Z,1.93
2022-10-18T15:46:08.326Z,2.10
2022-10-18T15:48:40.461Z,1.60
2022-10-18T15:51:11.071Z,2.93
2022-10-18T15:53:54.428Z,1.83
2022-10-18T15:56:36.602Z,2.27
2022-10-18T15:59:08.902Z,1.90
2022-10-18T16:01:40.156Z,1.80
2022-10-18T16:04:13.719Z,2.20
2022-10-18T16:06:43.101Z,1.73
2022-10-18T16:09:14.553Z,2.10
2022-10-18T16:11:47.046Z,1.93
2022-10-18T16:14:16.555Z,2.00
2022-10-18T16:16:45.985Z,1.90
2022-10-18T16:19:18.700Z,1.83
2022-10-18T16:21:48.101Z,1.57
2022-10-18T16:24:17.807Z,1.40
2022-10-18T16:26:50.153Z,1.87
2022-10-18T16:29:24.314Z,3.53
2022-10-18T16:31:58.160Z,1.70
2022-10-18T16:34:28.218Z,1.80
2022-10-18T16:36:57.838Z,2.50
2022-10-18T16:39:28.439Z,1.80
2022-10-18T16:42:00.434Z,2.10
2022-10-18T16:44:29.801Z,2.20
2022-10-18T16:46:59.217Z,2.50
2022-10-18T16:49:29.050Z,2.73
2022-10-18T16:51:59.455Z,1.70
2022-10-18T16:54:28.860Z,2.40
2022-10-18T16:57:00.828Z,2.07
2022-10-18T16:59:31.693Z,1.83
2022-10-18T17:02:05.554Z,2.33
2022-10-18T17:04:35.063Z,2.43
2022-10-18T17:07:05.889Z,2.30
2022-10-18T17:09:37.001Z,2.40
2022-10-18T17:12:09.074Z,3.07
2022-10-18T17:14:38.483Z,2.70
2022-10-18T17:17:07.904Z,3.00
2022-10-18T17:19:37.305Z,2.30
2022-10-18T17:22:06.706Z,2.87
2022-10-18T17:24:36.074Z,2.27
2022-10-18T17:27:05.511Z,2.33
2022-10-18T17:29:37.488Z,1.90
2022-10-18T17:32:07.221Z,2.67
2022-10-18T17:34:37.023Z,2.60
2022-10-18T17:37:07.171Z,3.53
2022-10-18T17:39:36.714Z,3.17
2022-10-18T17:42:06.266Z,9.37
2022-10-18T17:44:38.242Z,1.83
2022-10-18T17:47:07.683Z,4.83
2022-10-18T17:49:37.126Z,2.00
2022-10-18T17:52:07.207Z,5.10
2022-10-18T17:54:36.673Z,1.70
2022-10-18T17:57:06.104Z,1.90
2022-10-18T17:59:38.061Z,2.17
2022-10-18T18:02:07.458Z,7.97
2022-10-18T18:04:36.844Z,2.70
2022-10-18T18:07:06.533Z,1.97
2022-10-18T18:09:35.962Z,2.23
2022-10-18T18:12:05.729Z,2.77
2022-10-18T18:14:37.547Z,2.23
2022-10-18T18:17:09.597Z,3.70
2022-10-18T18:19:39.351Z,2.77
2022-10-18T18:22:08.787Z,2.33
2022-10-18T18:24:38.193Z,3.10
2022-10-18T18:27:07.642Z,3.13
2022-10-18T18:29:37.012Z,4.10
2022-10-18T18:32:09.029Z,2.87
2022-10-18T18:34:40.549Z,2.70
2022-10-18T18:37:12.860Z,2.50
2022-10-18T18:39:42.300Z,1.97
2022-10-18T18:42:11.829Z,1.90
2022-10-18T18:44:45.845Z,2.27
2022-10-18T18:47:21.539Z,1.87
2022-10-18T18:49:51.701Z,2.10
2022-10-18T18:52:21.116Z,2.53
2022-10-18T18:54:50.505Z,2.00
2022-10-18T18:57:19.939Z,3.77
2022-10-18T18:59:49.520Z,3.57
2022-10-18T19:02:21.530Z,1.97
2022-10-18T19:04:51.433Z,1.80
2022-10-18T19:07:20.831Z,6.00
2022-10-18T19:09:50.910Z,9.27
2022-10-18T19:12:21.441Z,1.77
2022-10-18T19:14:50.959Z,1.83
2022-10-18T19:17:23.618Z,2.57
2022-10-18T19:19:54.171Z,2.03
2022-10-18T19:22:23.548Z,2.30
2022-10-18T19:24:52.907Z,3.07
2022-10-18T19:27:22.317Z,2.13
2022-10-18T19:29:52.246Z,2.53
2022-10-18T19:32:24.379Z,2.60
2022-10-18T19:34:53.773Z,2.60
2022-10-18T19:37:23.151Z,3.20
2022-10-18T19:39:52.554Z,3.20
2022-10-18T19:42:25.088Z,2.10
2022-10-18T19:44:56.816Z,2.33
2022-10-18T19:47:28.775Z,2.37
2022-10-18T19:49:59.178Z,2.00
2022-10-18T19:52:28.670Z,2.00
2022-10-18T19:54:58.030Z,2.13
2022-10-18T19:57:27.454Z,4.83
2022-10-18T19:59:57.366Z,2.50
2022-10-18T20:02:29.965Z,2.00
2022-10-18T20:04:59.830Z,1.77
2022-10-18T20:07:29.209Z,2.20
2022-10-18T20:09:58.630Z,1.93
2022-10-18T20:12:28.148Z,10.20
2022-10-18T20:14:57.544Z,3.70
2022-10-18T20:17:29.543Z,4.67
2022-10-18T20:19:58.950Z,2.30
2022-10-18T20:22:28.342Z,1.33
2022-10-18T20:24:58.479Z,1.90
2022-10-18T20:27:27.969Z,2.30
2022-10-18T20:29:57.486Z,1.83
2022-10-18T20:32:29.468Z,2.37
2022-10-18T20:34:58.827Z,2.47
2022-10-18T20:37:28.205Z,2.73
2022-10-18T20:39:57.696Z,5.47
2022-10-18T20:42:27.146Z,12.97
2022-10-18T20:44:56.579Z,2.47
2022-10-18T20:47:25.973Z,2.10
2022-10-18T20:49:57.977Z,2.00
2022-10-18T20:52:27.462Z,2.10
2022-10-18T20:54:56.860Z,2.00
2022-10-18T20:57:26.326Z,1.90
2022-10-18T20:59:55.731Z,2.60
2022-10-18T21:02:25.151Z,1.67
2022-10-18T21:04:54.884Z,1.80
2022-10-18T21:07:26.968Z,2.00
2022-10-18T21:09:56.353Z,1.80
2022-10-18T21:12:27.616Z,2.77
2022-10-18T21:14:58.490Z,2.30
2022-10-18T21:17:27.860Z,2.30
2022-10-18T21:19:57.228Z,2.23
2022-10-18T21:22:29.228Z,2.40
2022-10-18T21:24:58.625Z,3.20
2022-10-18T21:27:28.026Z,1.70
2022-10-18T21:29:57.407Z,3.53
2022-10-18T21:32:26.893Z,1.53
2022-10-18T21:34:56.282Z,1.80
2022-10-18T21:37:25.651Z,2.23
2022-10-18T21:39:57.589Z,1.70
2022-10-18T21:42:27.017Z,1.47
2022-10-18T21:44:56.416Z,1.60
2022-10-18T21:47:25.819Z,1.60
2022-10-18T21:49:55.210Z,8.90
2022-10-18T21:52:24.567Z,1.60
2022-10-18T21:54:54.014Z,1.77
2022-10-18T21:57:26.054Z,1.23
2022-10-18T21:59:55.509Z,1.23
2022-10-18T22:02:24.943Z,2.13
2022-10-18T22:04:54.328Z,4.37
2022-10-18T22:07:23.691Z,19.40
2022-10-18T22:09:53.064Z,6.73
2022-10-18T22:12:22.485Z,1.90
2022-10-18T22:14:54.435Z,3.43
2022-10-18T22:17:23.828Z,4.93
2022-10-18T22:19:53.182Z,1.40
2022-10-18T22:22:23.562Z,2.70
2022-10-18T22:24:52.925Z,1.70
2022-10-18T22:27:22.320Z,3.80
2022-10-18T22:29:54.802Z,1.00
2022-10-18T22:32:24.162Z,1.40
2022-10-18T22:34:53.607Z,1.43
2022-10-18T22:37:22.971Z,1.40
2022-10-18T22:39:52.347Z,1.57
2022-10-18T22:42:21.865Z,1.20
2022-10-18T22:44:53.853Z,1.57
2022-10-18T22:47:24.262Z,1.80
2022-10-18T22:49:53.634Z,1.50
2022-10-18T22:52:23.003Z,1.57
2022-10-18T22:54:52.387Z,1.93
2022-10-18T22:57:21.780Z,1.53
2022-10-18T22:59:53.761Z,1.20
2022-10-18T23:02:23.159Z,2.03
2022-10-18T23:04:52.566Z,3.23
2022-10-18T23:07:21.924Z,1.40
2022-10-18T23:09:51.377Z,2.80
2022-10-18T23:12:20.753Z,2.20
2022-10-18T23:14:50.163Z,1.60
2022-10-18T23:17:22.114Z,1.60
2022-10-18T23:19:51.546Z,1.33
2022-10-18T23:22:21.298Z,4.63
2022-10-18T23:24:50.695Z,2.10
2022-10-18T23:27:20.494Z,3.70
2022-10-18T23:29:49.862Z,1.60
2022-10-18T23:32:21.873Z,3.93
2022-10-18T23:34:52.108Z,1.70
2022-10-18T23:37:21.540Z,2.73
2022-10-18T23:39:50.986Z,3.00
2022-10-18T23:42:20.419Z,3.60
2022-10-18T23:44:50.132Z,4.73
2022-10-18T23:47:22.078Z,2.00
2022-10-18T23:49:51.498Z,2.00
2022-10-18T23:52:20.878Z,5.30
2022-10-18T23:54:50.663Z,1.97
2022-10-18T23:57:20.021Z,2.20
2022-10-18T23:59:49.484Z,14.50
